Time;durP1;ratioP1;P1;durP2;ratioP2;P2;SDS_P1;SDS_P2;PMS_P1;PMS_P2;Temp;Humidity;BMP_temperature;BMP_pressure;BME280_temperature;BME280_humidity;BME280_pressure;Samples;Min_cycle;Max_cycle;Signal;HPM_P1;HPM_P2
2020/12/29 00:02:06;;;;;;;7.03;2.55;;;;;;;13.01;47.99;99702.28;5031567;28;20036;-42
2020/12/29 00:04:32;;;;;;;10.77;2.75;;;;;;;12.96;48.18;99700.44;5031378;28;20377;-44
2020/12/29 00:06:58;;;;;;;7.25;2.08;;;;;;;13.04;48.05;99701.69;5030454;28;20029;-43
2020/12/29 00:09:25;;;;;;;13.88;7.07;;;;;;;12.89;48.46;99704.53;5024584;28;20049;-43
2020/12/29 00:11:52;;;;;;;9.13;3.13;;;;;;;12.90;48.24;99689.97;5031052;28;20053;-43
2020/12/29 00:14:19;;;;;;;5.10;3.95;;;;;;;12.75;47.97;99701.66;5017384;28;20100;-46
2020/12/29 00:16:45;;;;;;;4.57;2.05;;;;;;;12.73;45.75;99691.19;5014020;28;20045;-43
2020/12/29 00:19:12;;;;;;;6.45;1.25;;;;;;;12.80;46.82;99682.81;5018801;28;20045;-44
2020/12/29 00:21:38;;;;;;;2.20;1.83;;;;;;;12.85;47.19;99693.53;5030868;28;20033;-44
2020/12/29 00:24:04;;;;;;;5.25;1.55;;;;;;;12.89;46.85;99685.69;5037790;28;20064;-45
2020/12/29 00:26:30;;;;;;;8.80;3.22;;;;;;;12.94;47.25;99682.94;5030314;28;20068;-45
2020/12/29 00:28:56;;;;;;;3.72;2.08;;;;;;;12.97;46.95;99685.91;5030750;28;20068;-45
2020/12/29 00:31:22;;;;;;;11.85;3.75;;;;;;;12.88;47.17;99684.88;5031082;28;20184;-43
2020/12/29 00:33:50;;;;;;;4.75;3.03;;;;;;;12.83;48.45;99682.22;5027484;28;20502;-45
2020/12/29 00:36:20;;;;;;;5.18;2.50;;;;;;;12.80;47.94;99675.53;5012636;28;20054;-44
2020/12/29 00:38:45;;;;;;;4.78;3.72;;;;;;;12.72;48.55;99681.47;5013850;28;20037;-44
2020/12/29 00:41:12;;;;;;;12.57;3.17;;;;;;;12.63;48.70;99688.53;5012822;28;20044;-45
2020/12/29 00:43:39;;;;;;;5.90;3.08;;;;;;;12.58;49.06;99684.00;5028758;28;20049;-45
2020/12/29 00:46:06;;;;;;;4.13;1.63;;;;;;;12.58;49.15;99697.44;5022082;28;20044;-45
2020/12/29 00:48:32;;;;;;;6.03;2.35;;;;;;;12.62;49.43;99692.31;5030646;28;20064;-45
2020/12/29 00:51:16;;;;;;;2.65;0.73;;;;;;;12.63;50.27;99688.53;5027411;28;20403;-46
2020/12/29 00:53:42;;;;;;;5.70;2.45;;;;;;;12.66;49.66;99690.69;5030351;28;20033;-46
2020/12/29 00:56:10;;;;;;;7.78;2.53;;;;;;;12.68;49.69;99683.13;5030210;28;20423;-43
2020/12/29 00:58:36;;;;;;;11.38;3.05;;;;;;;12.65;49.57;99681.00;5030091;28;20033;-45
2020/12/29 01:01:04;;;;;;;7.88;2.92;;;;;;;12.62;49.62;99673.47;5030132;28;20045;-44
2020/12/29 01:03:30;;;;;;;5.47;2.03;;;;;;;12.77;49.16;99675.28;5030104;28;20416;-43
2020/12/29 01:05:55;;;;;;;5.32;2.42;;;;;;;12.83;49.48;99684.91;5030439;28;20033;-45
2020/12/29 01:08:21;;;;;;;7.70;2.17;;;;;;;12.73;49.67;99677.72;5029592;28;20480;-45
2020/12/29 01:10:57;;;;;;;7.70;1.63;;;;;;;12.69;49.91;99676.66;5030325;28;20045;-44
2020/12/29 01:13:23;;;;;;;4.28;1.63;;;;;;;12.76;49.10;99674.50;5029848;28;20580;-46
2020/12/29 01:15:50;;;;;;;6.78;2.70;;;;;;;12.62;49.83;99670.78;5029949;28;20136;-44
2020/12/29 01:18:16;;;;;;;9.60;2.65;;;;;;;12.78;49.20;99671.50;5030055;28;20383;-44
2020/12/29 01:20:41;;;;;;;5.78;2.42;;;;;;;12.77;49.47;99677.97;5029770;28;20040;-42
2020/12/29 01:23:07;;;;;;;7.38;1.95;;;;;;;12.65;49.80;99681.00;5024624;28;20041;-43
2020/12/29 01:25:33;;;;;;;2.00;1.15;;;;;;;12.66;50.17;99685.31;5020160;28;20041;-47
2020/12/29 01:27:58;;;;;;;11.07;1.27;;;;;;;12.60;50.30;99689.09;5024468;28;20052;-43
2020/12/29 01:30:24;;;;;;;11.00;1.23;;;;;;;12.65;49.94;99689.84;5029496;28;20068;-48
2020/12/29 01:32:50;;;;;;;4.28;1.25;;;;;;;12.64;50.05;99695.50;5029814;28;20061;-47
2020/12/29 01:35:15;;;;;;;9.35;1.75;;;;;;;12.63;50.75;99691.22;5029453;28;20053;-47
2020/12/29 01:37:42;;;;;;;18.85;2.42;;;;;;;12.62;51.00;99690.44;5030181;28;20041;-45
2020/12/29 01:40:08;;;;;;;6.40;1.98;;;;;;;12.74;50.22;99690.06;5029148;28;20183;-46
2020/12/29 01:42:34;;;;;;;7.78;1.73;;;;;;;12.69;50.66;99687.41;5029877;28;20048;-43
2020/12/29 01:45:00;;;;;;;6.95;1.65;;;;;;;12.74;50.55;99692.75;5029306;28;20047;-43
2020/12/29 01:47:27;;;;;;;6.97;2.05;;;;;;;12.64;50.56;99690.13;5029509;28;20056;-42
2020/12/29 01:49:53;;;;;;;10.73;2.60;;;;;;;12.67;50.72;99701.16;5029730;28;20044;-43
2020/12/29 01:52:19;;;;;;;4.50;2.08;;;;;;;12.67;50.94;99703.03;5029632;28;20053;-44
2020/12/29 01:54:45;;;;;;;8.57;1.88;;;;;;;12.72;50.69;99707.59;5029531;28;20506;-44
2020/12/29 01:57:13;;;;;;;16.55;1.60;;;;;;;12.68;50.68;99705.44;5029006;28;20041;-43
2020/12/29 01:59:38;;;;;;;18.33;2.78;;;;;;;12.79;50.65;99702.69;5029523;28;20132;-42
2020/12/29 02:02:04;;;;;;;3.15;1.67;;;;;;;12.88;50.34;99697.53;5029486;28;20171;-43
2020/12/29 02:04:30;;;;;;;3.85;1.42;;;;;;;12.81;51.04;99709.41;5029551;28;20517;-46
2020/12/29 02:06:55;;;;;;;11.23;1.95;;;;;;;12.77;50.98;99699.50;5029447;28;20041;-43
2020/12/29 02:09:21;;;;;;;2.30;1.08;;;;;;;12.58;51.40;99707.41;5029068;28;20494;-43
2020/12/29 02:11:46;;;;;;;4.63;1.63;;;;;;;12.59;51.57;99709.03;5029029;28;20427;-43
2020/12/29 02:14:12;;;;;;;2.67;0.68;;;;;;;12.72;50.65;99708.38;5028868;28;20049;-43
2020/12/29 02:16:38;;;;;;;5.35;2.35;;;;;;;12.65;50.87;99706.00;5029129;28;20044;-43
2020/12/29 02:19:08;;;;;;;3.53;1.77;;;;;;;12.63;51.17;99702.00;5028988;28;20543;-44
2020/12/29 02:21:34;;;;;;;13.80;3.33;;;;;;;12.49;52.31;99704.47;5028880;28;20175;-46
2020/12/29 02:24:01;;;;;;;5.65;2.00;;;;;;;12.55;52.05;99699.88;5028651;28;20045;-45
2020/12/29 02:26:31;;;;;;;3.55;1.23;;;;;;;12.74;51.96;99700.03;5028567;28;20120;-43
2020/12/29 02:29:05;;;;;;;11.15;1.65;;;;;;;12.72;51.46;99705.69;5022226;28;20511;-43
2020/12/29 02:31:30;;;;;;;13.68;4.35;;;;;;;12.70;52.11;99713.25;5028550;28;20541;-45
2020/12/29 02:33:56;;;;;;;4.32;1.55;;;;;;;12.70;51.58;99699.78;5028628;28;20041;-43
2020/12/29 02:36:22;;;;;;;6.72;1.75;;;;;;;12.55;52.09;99702.56;5028655;28;20063;-43
2020/12/29 02:38:48;;;;;;;1.83;0.95;;;;;;;12.59;52.57;99706.31;5027977;28;20045;-44
2020/12/29 02:41:16;;;;;;;5.25;2.33;;;;;;;12.58;52.64;99702.81;5028460;28;20033;-42
2020/12/29 02:43:42;;;;;;;3.40;1.38;;;;;;;12.66;51.71;99701.44;5028173;28;20045;-43
2020/12/29 02:46:07;;;;;;;6.75;3.35;;;;;;;12.65;51.55;99691.75;5028653;28;20067;-44
2020/12/29 02:48:33;;;;;;;3.60;2.17;;;;;;;12.70;51.46;99696.31;5028500;28;20413;-48
2020/12/29 02:50:58;;;;;;;6.88;2.72;;;;;;;12.72;51.63;99697.63;5028511;28;20175;-42
2020/12/29 02:53:23;;;;;;;3.28;1.50;;;;;;;12.58;51.75;99699.31;5028349;28;20087;-44
2020/12/29 02:55:49;;;;;;;4.30;1.20;;;;;;;12.59;51.51;99700.94;5025421;28;20436;-44
2020/12/29 02:58:14;;;;;;;9.75;1.13;;;;;;;12.48;51.24;99694.78;5023833;28;20423;-43
2020/12/29 03:00:40;;;;;;;4.10;1.08;;;;;;;12.59;51.25;99679.44;5027659;28;20048;-47
2020/12/29 03:03:05;;;;;;;7.03;1.85;;;;;;;12.71;50.95;99684.44;5028594;28;20037;-47
2020/12/29 03:05:31;;;;;;;6.53;1.90;;;;;;;12.69;50.84;99687.41;5012727;28;20056;-43
2020/12/29 03:07:56;;;;;;;4.82;1.60;;;;;;;12.58;51.66;99685.88;5009795;28;20044;-42
2020/12/29 03:10:22;;;;;;;6.28;2.65;;;;;;;12.59;50.20;99685.59;5018843;28;20046;-42
2020/12/29 03:12:47;;;;;;;6.88;1.70;;;;;;;12.74;50.45;99687.38;5020769;28;20088;-44
2020/12/29 03:15:13;;;;;;;7.50;1.52;;;;;;;12.71;50.38;99685.28;5027923;28;20356;-43
2020/12/29 03:17:38;;;;;;;2.58;1.30;;;;;;;12.75;50.19;99688.22;5020941;28;20444;-43
2020/12/29 03:20:05;;;;;;;9.13;1.85;;;;;;;12.59;50.99;99687.50;5027418;28;20411;-47
2020/12/29 03:22:32;;;;;;;4.85;1.92;;;;;;;12.68;50.66;99693.91;5029155;28;20033;-43
2020/12/29 03:24:57;;;;;;;2.30;1.58;;;;;;;12.78;50.48;99693.00;5031854;28;20399;-43
2020/12/29 03:27:22;;;;;;;2.10;0.90;;;;;;;12.67;50.91;99700.34;5032026;28;20034;-45
2020/12/29 03:29:48;;;;;;;7.22;1.63;;;;;;;12.65;51.19;99689.06;5031675;28;20029;-46
2020/12/29 03:32:14;;;;;;;4.25;1.17;;;;;;;12.54;49.99;99682.16;5032020;28;20041;-44
2020/12/29 03:34:39;;;;;;;4.47;2.28;;;;;;;12.57;50.09;99687.78;5031599;28;20173;-44
2020/12/29 03:37:07;;;;;;;7.65;2.20;;;;;;;12.59;50.82;99679.44;5031960;28;20037;-43
2020/12/29 03:39:34;;;;;;;3.92;0.95;;;;;;;12.58;50.83;99683.19;5031625;28;20048;-44
2020/12/29 03:42:00;;;;;;;9.55;1.90;;;;;;;12.70;50.46;99689.03;5031964;28;20038;-42
2020/12/29 03:44:25;;;;;;;8.15;2.67;;;;;;;12.72;50.00;99678.00;5031753;28;20041;-42
2020/12/29 03:46:51;;;;;;;6.43;1.77;;;;;;;12.66;50.52;99674.53;5031847;28;20052;-44
2020/12/29 03:49:18;;;;;;;3.78;1.02;;;;;;;12.67;50.44;99671.59;5031564;28;20081;-42
2020/12/29 03:51:43;;;;;;;14.32;1.83;;;;;;;12.63;50.61;99667.81;5031591;28;20528;-44
2020/12/29 03:54:09;;;;;;;3.75;1.83;;;;;;;12.72;50.93;99667.25;5031346;28;20033;-44
2020/12/29 03:56:34;;;;;;;9.52;1.50;;;;;;;12.72;50.09;99672.63;5031140;28;20665;-43
2020/12/29 03:59:00;;;;;;;5.53;1.50;;;;;;;12.72;50.00;99669.94;5031568;28;20045;-42
2020/12/29 04:01:25;;;;;;;2.83;1.05;;;;;;;12.82;50.38;99678.72;5031501;28;20061;-45
2020/12/29 04:03:50;;;;;;;10.00;1.60;;;;;;;12.74;50.39;99681.22;5031363;28;20030;-44
2020/12/29 04:06:16;;;;;;;7.07;1.58;;;;;;;12.74;50.59;99667.75;5031301;28;20037;-43
2020/12/29 04:08:41;;;;;;;4.03;1.45;;;;;;;12.65;50.54;99672.94;5031070;28;20033;-47
2020/12/29 04:11:07;;;;;;;5.70;2.63;;;;;;;12.56;51.30;99661.16;5031011;28;20577;-44
2020/12/29 04:13:33;;;;;;;1.00;0.60;;;;;;;12.47;51.66;99659.06;5030902;28;20403;-45
2020/12/29 04:15:58;;;;;;;6.43;1.60;;;;;;;12.50;51.51;99671.16;5030999;28;20045;-45
2020/12/29 04:18:24;;;;;;;11.98;1.88;;;;;;;12.52;51.88;99660.91;5030633;28;20123;-45
2020/12/29 04:20:49;;;;;;;3.45;0.98;;;;;;;12.52;51.60;99674.38;5030957;28;20044;-44
2020/12/29 04:23:15;;;;;;;6.97;1.60;;;;;;;12.48;51.58;99667.91;5029844;28;20527;-42
2020/12/29 04:25:40;;;;;;;5.38;1.50;;;;;;;12.51;51.79;99672.75;5030659;28;20052;-46
2020/12/29 04:28:06;;;;;;;9.50;1.58;;;;;;;12.48;51.49;99660.66;5030553;28;20037;-44
2020/12/29 04:30:32;;;;;;;5.65;3.63;;;;;;;12.52;50.98;99663.59;5029848;28;20459;-43
2020/12/29 04:33:00;;;;;;;2.85;1.92;;;;;;;12.70;50.90;99662.13;5019423;28;20040;-43
2020/12/29 04:35:26;;;;;;;5.47;2.70;;;;;;;12.54;51.11;99660.66;5011087;28;20058;-44
2020/12/29 04:37:51;;;;;;;13.93;2.58;;;;;;;12.67;50.82;99670.75;5013126;28;20033;-41
2020/12/29 04:40:17;;;;;;;10.93;2.33;;;;;;;12.79;50.99;99665.84;5012089;28;20037;-45
2020/12/29 04:42:42;;;;;;;4.25;1.75;;;;;;;12.74;50.80;99663.19;5013208;28;20741;-42
2020/12/29 04:45:08;;;;;;;5.60;2.17;;;;;;;12.70;51.14;99670.22;5017494;28;20762;-43
2020/12/29 04:47:35;;;;;;;5.72;1.88;;;;;;;12.70;51.38;99675.59;5030483;28;20404;-45
2020/12/29 04:50:01;;;;;;;7.05;2.15;;;;;;;12.68;51.88;99667.00;5029943;28;20040;-43
2020/12/29 04:52:27;;;;;;;5.78;2.53;;;;;;;12.64;52.24;99666.75;5029377;28;20057;-41
2020/12/29 04:54:54;;;;;;;13.23;2.75;;;;;;;12.77;51.87;99669.91;5030051;28;20682;-46
2020/12/29 04:57:22;;;;;;;10.38;1.65;;;;;;;12.83;51.69;99676.84;5030341;28;20052;-45
2020/12/29 04:59:48;;;;;;;7.13;0.98;;;;;;;12.79;51.56;99681.97;5030263;28;20037;-49
2020/12/29 05:02:13;;;;;;;9.23;1.48;;;;;;;12.56;52.77;99685.38;5030718;28;20734;-45
2020/12/29 05:04:39;;;;;;;7.32;2.35;;;;;;;12.60;51.99;99675.66;5030149;28;20116;-45
2020/12/29 05:07:04;;;;;;;8.57;2.22;;;;;;;12.65;52.38;99678.31;5030358;28;20064;-46
2020/12/29 05:09:32;;;;;;;8.13;2.22;;;;;;;12.64;52.13;99679.38;5029861;28;20025;-46
2020/12/29 05:11:58;;;;;;;7.72;1.70;;;;;;;12.49;52.37;99681.09;5029700;28;20073;-47
2020/12/29 05:14:23;;;;;;;5.03;1.70;;;;;;;12.63;51.65;99675.91;5029867;28;20067;-44
2020/12/29 05:16:53;;;;;;;4.45;0.88;;;;;;;12.48;52.15;99689.41;5029252;28;20053;-45
2020/12/29 05:19:20;;;;;;;5.85;1.70;;;;;;;12.61;52.16;99685.34;5029694;28;20033;-48
2020/12/29 05:21:46;;;;;;;4.53;1.67;;;;;;;12.56;51.64;99685.38;5029906;28;20048;-42
2020/12/29 05:24:24;;;;;;;3.95;1.88;;;;;;;12.56;52.21;99685.38;5029129;28;20033;-43
2020/12/29 05:26:57;;;;;;;3.25;1.83;;;;;;;12.72;51.71;99689.56;5029370;28;20034;-48
2020/12/29 05:29:24;;;;;;;3.05;1.67;;;;;;;12.65;50.53;99689.06;5029751;28;20033;-44
2020/12/29 05:31:51;;;;;;;3.13;1.67;;;;;;;12.59;50.97;99688.31;5029174;28;20055;-46
2020/12/29 05:34:27;;;;;;;12.23;1.58;;;;;;;12.73;51.12;99690.34;5029229;28;20120;-46
2020/12/29 05:36:55;;;;;;;9.95;1.05;;;;;;;12.72;51.03;99688.75;5029048;28;20434;-42
2020/12/29 05:39:23;;;;;;;2.55;0.60;;;;;;;12.70;51.03;99693.63;5014928;28;20433;-42
2020/12/29 05:41:50;;;;;;;3.45;1.77;;;;;;;12.70;50.95;99691.72;5028660;28;20686;-45
2020/12/29 05:44:32;;;;;;;6.30;1.50;;;;;;;12.78;50.72;99688.44;5028945;28;20040;-44
2020/12/29 05:47:03;;;;;;;7.95;1.80;;;;;;;12.78;50.86;99699.22;5029049;28;20045;-46
2020/12/29 05:49:31;;;;;;;7.18;2.65;;;;;;;12.81;50.24;99693.25;5029120;28;20456;-42
2020/12/29 05:51:57;;;;;;;3.65;1.70;;;;;;;12.76;50.92;99690.63;5022281;28;20042;-43
2020/12/29 05:54:24;;;;;;;5.63;2.30;;;;;;;12.82;50.75;99702.94;5028032;28;20045;-42
2020/12/29 05:56:51;;;;;;;4.82;2.35;;;;;;;12.80;51.63;99701.63;5028816;28;20041;-42
2020/12/29 05:59:16;;;;;;;13.18;3.35;;;;;;;12.79;51.60;99700.81;5028940;28;20497;-44
2020/12/29 06:01:51;;;;;;;7.85;6.68;;;;;;;12.79;50.97;99697.31;5029406;28;20051;-42
2020/12/29 06:04:18;;;;;;;5.70;3.38;;;;;;;12.70;51.01;99686.34;5029210;28;20163;-42
2020/12/29 06:06:45;;;;;;;6.95;2.33;;;;;;;12.74;50.48;99684.69;5029217;28;20064;-41
2020/12/29 06:09:16;;;;;;;2.92;1.17;;;;;;;12.71;50.72;99687.97;5029160;28;20033;-41
2020/12/29 06:11:47;;;;;;;4.97;1.85;;;;;;;12.75;50.45;99688.22;5029138;28;20056;-45
2020/12/29 06:14:18;;;;;;;5.03;2.50;;;;;;;12.78;50.31;99703.78;5028655;28;20106;-41
2020/12/29 06:16:45;;;;;;;2.55;1.17;;;;;;;12.71;50.26;99693.34;5028976;28;20049;-41
2020/12/29 06:19:30;;;;;;;3.63;1.92;;;;;;;12.73;50.44;99701.09;5029162;28;20037;-42
2020/12/29 06:22:12;;;;;;;4.78;2.05;;;;;;;12.73;50.35;99693.88;5021943;28;20041;-45
2020/12/29 06:24:45;;;;;;;1.70;1.30;;;;;;;12.72;49.91;99696.84;5027995;28;20411;-47
2020/12/29 06:27:12;;;;;;;2.17;0.90;;;;;;;12.61;49.61;99691.50;5028987;28;20092;-47
2020/12/29 06:29:43;;;;;;;2.55;1.20;;;;;;;12.69;49.93;99700.88;5028721;28;20040;-44
2020/12/29 06:32:15;;;;;;;5.70;1.95;;;;;;;12.60;49.91;99699.84;5023343;28;20049;-42
2020/12/29 06:34:42;;;;;;;4.28;1.25;;;;;;;12.58;49.54;99700.13;5010542;28;20061;-45
2020/12/29 06:37:30;;;;;;;6.63;1.08;;;;;;;12.62;50.13;99695.81;5025304;28;20049;-42
2020/12/29 06:40:07;;;;;;;2.88;1.40;;;;;;;12.61;49.95;99706.84;5025353;28;20033;-43
2020/12/29 06:42:37;;;;;;;3.50;1.60;;;;;;;12.60;49.67;99702.53;5028816;28;20046;-42
2020/12/29 06:45:06;;;;;;;2.17;0.83;;;;;;;12.64;49.92;99704.41;5028339;28;20057;-44
2020/12/29 06:47:31;;;;;;;4.45;2.13;;;;;;;12.59;50.06;99709.81;5020900;28;20554;-42
2020/12/29 06:49:57;;;;;;;3.30;1.42;;;;;;;12.65;50.28;99706.00;5028344;28;20033;-43
2020/12/29 06:52:25;;;;;;;3.83;1.02;;;;;;;12.72;49.75;99719.13;5023494;28;20037;-43
2020/12/29 06:54:57;;;;;;;4.90;2.22;;;;;;;12.77;49.57;99724.50;5059839;28;20179;-44
2020/12/29 06:57:45;;;;;;;10.25;3.80;;;;;;;12.73;50.54;99707.31;5027664;28;20042;-43
2020/12/29 07:00:11;;;;;;;6.53;3.03;;;;;;;12.70;50.06;99715.13;5023010;28;20057;-42
2020/12/29 07:02:38;;;;;;;29.17;5.30;;;;;;;12.74;50.06;99711.59;5028426;28;20076;-43
2020/12/29 07:05:12;;;;;;;17.27;5.97;;;;;;;12.78;50.99;99712.66;5028045;28;20399;-46
2020/12/29 07:07:46;;;;;;;6.68;4.43;;;;;;;12.68;52.19;99716.22;5028370;28;20037;-42
2020/12/29 07:10:13;;;;;;;4.43;1.90;;;;;;;12.66;51.67;99721.06;5028111;28;20029;-42
2020/12/29 07:12:43;;;;;;;5.82;2.13;;;;;;;12.57;52.02;99717.34;5027997;28;20075;-44
2020/12/29 07:15:13;;;;;;;3.88;1.67;;;;;;;12.59;51.50;99717.09;5027529;28;20076;-43
2020/12/29 07:17:38;;;;;;;10.45;1.23;;;;;;;12.49;52.72;99718.72;5027886;28;20041;-42
2020/12/29 07:20:15;;;;;;;3.17;1.58;;;;;;;12.51;51.66;99712.28;5027741;28;20030;-49
2020/12/29 07:22:41;;;;;;;12.20;2.75;;;;;;;12.52;51.89;99712.00;5028122;28;20049;-44
2020/12/29 07:25:07;;;;;;;5.32;1.88;;;;;;;12.55;51.99;99718.69;5028030;28;20167;-46
2020/12/29 07:27:36;;;;;;;1.27;1.02;;;;;;;12.48;53.25;99717.13;5027782;28;20046;-44
2020/12/29 07:30:02;;;;;;;2.65;1.13;;;;;;;12.53;53.34;99716.28;5026882;28;20053;-50
2020/12/29 07:32:28;;;;;;;7.47;1.80;;;;;;;12.57;53.07;99716.53;5027074;28;20045;-45
2020/12/29 07:34:53;;;;;;;1.15;0.85;;;;;;;12.68;52.70;99715.41;5026018;28;20049;-50
2020/12/29 07:37:23;;;;;;;4.43;1.88;;;;;;;12.57;52.60;99722.72;5028363;28;20057;-46
2020/12/29 07:39:49;;;;;;;2.53;0.65;;;;;;;12.65;52.60;99722.13;5027130;28;20037;-44
2020/12/29 07:42:15;;;;;;;5.13;2.65;;;;;;;12.66;53.00;99729.13;5027774;28;20480;-43
2020/12/29 07:44:42;;;;;;;5.72;1.60;;;;;;;12.69;53.49;99727.75;5027725;28;20029;-42
2020/12/29 07:47:08;;;;;;;3.05;1.55;;;;;;;12.72;53.12;99729.91;5028106;28;20514;-42
2020/12/29 07:49:34;;;;;;;14.23;1.75;;;;;;;12.81;52.82;99733.59;5027081;28;20037;-43
2020/12/29 07:51:59;;;;;;;2.53;1.23;;;;;;;12.89;52.67;99734.13;5026771;28;20123;-43
2020/12/29 07:54:25;;;;;;;5.97;1.60;;;;;;;12.89;52.95;99728.75;5027299;28;20044;-41
2020/12/29 07:56:51;;;;;;;3.33;1.75;;;;;;;12.85;53.31;99742.75;5027990;28;20037;-40
2020/12/29 07:59:17;;;;;;;8.75;2.05;;;;;;;12.79;53.37;99743.84;5027736;28;20363;-41
2020/12/29 08:01:51;;;;;;;9.00;1.50;;;;;;;12.88;52.50;99735.19;5027969;28;20533;-42
2020/12/29 08:04:33;;;;;;;5.35;1.98;;;;;;;12.93;53.15;99749.41;5026540;28;20072;-45
2020/12/29 08:07:06;;;;;;;13.93;2.55;;;;;;;12.82;53.25;99743.28;5025786;28;20045;-41
2020/12/29 08:09:44;;;;;;;7.90;1.73;;;;;;;12.84;52.32;99754.56;5024634;28;20068;-42
2020/12/29 08:12:09;;;;;;;4.88;2.58;;;;;;;12.91;51.73;99751.56;5030742;28;20106;-42
2020/12/29 08:14:40;;;;;;;3.63;1.70;;;;;;;12.94;52.03;99758.28;5030553;28;20471;-44
2020/12/29 08:17:05;;;;;;;6.50;2.00;;;;;;;12.93;51.80;99762.06;5030894;28;20096;-44
2020/12/29 08:19:31;;;;;;;2.63;1.63;;;;;;;12.91;51.59;99764.22;5021617;28;20045;-44
2020/12/29 08:21:57;;;;;;;2.10;1.33;;;;;;;12.86;51.66;99768.53;5026940;28;20048;-47
2020/12/29 08:24:23;;;;;;;10.18;2.03;;;;;;;12.86;52.53;99773.13;5027079;28;20041;-47
2020/12/29 08:26:56;;;;;;;9.85;1.98;;;;;;;12.89;52.76;99779.84;5027636;28;20042;-45
2020/12/29 08:29:21;;;;;;;1.80;0.70;;;;;;;12.84;52.76;99776.09;5027118;28;20029;-43
2020/12/29 08:31:48;;;;;;;7.40;2.88;;;;;;;12.89;52.91;99780.66;5027417;28;20119;-45
2020/12/29 08:34:18;;;;;;;9.93;2.90;;;;;;;12.90;53.15;99787.63;5026868;28;20033;-43
2020/12/29 08:36:44;;;;;;;13.65;4.55;;;;;;;12.82;53.18;99780.16;5027775;28;20052;-43
2020/12/29 08:39:50;;;;;;;7.50;2.50;;;;;;;12.74;53.50;99784.22;5027216;28;20095;-44
2020/12/29 08:42:18;;;;;;;12.63;2.58;;;;;;;12.67;53.10;99791.78;5026482;28;20045;-45
2020/12/29 08:44:44;;;;;;;4.35;2.38;;;;;;;12.62;53.46;99794.50;5027427;28;20756;-43
2020/12/29 08:47:12;;;;;;;5.93;3.13;;;;;;;12.70;53.02;99799.31;5027139;28;20079;-43
2020/12/29 08:49:37;;;;;;;5.22;2.15;;;;;;;12.70;52.82;99793.13;5028755;28;20042;-51
2020/12/29 08:52:03;;;;;;;10.73;2.58;;;;;;;12.69;53.24;99803.06;5028321;28;20046;-45
2020/12/29 08:54:36;;;;;;;11.02;1.40;;;;;;;12.77;53.62;99804.38;5028961;28;20039;-44
2020/12/29 08:57:03;;;;;;;6.75;1.38;;;;;;;12.80;54.04;99810.03;5027935;28;20079;-43
2020/12/29 08:59:36;;;;;;;7.47;2.05;;;;;;;12.71;54.04;99808.16;5029591;28;20060;-72
2020/12/29 09:02:02;;;;;;;14.23;8.55;;;;;;;12.53;54.54;99818.44;5023608;28;20072;-71
2020/12/29 09:04:42;;;;;;;15.82;3.90;;;;;;;12.60;54.51;99821.66;5029487;28;20068;-70
2020/12/29 09:07:12;;;;;;;7.93;2.25;;;;;;;12.57;54.40;99821.41;5024018;28;20119;-70
2020/12/29 09:09:53;;;;;;;14.32;3.83;;;;;;;12.63;54.98;99823.00;5029504;28;20481;-70
2020/12/29 09:12:22;;;;;;;9.45;3.22;;;;;;;12.72;54.22;99829.41;5028567;28;20087;-70
2020/12/29 09:15:00;;;;;;;12.20;2.58;;;;;;;12.71;54.24;99832.38;5028758;28;20128;-71
2020/12/29 09:17:40;;;;;;;7.22;3.83;;;;;;;12.61;54.59;99838.63;5029107;28;20045;-68
2020/12/29 09:20:25;;;;;;;8.68;2.45;;;;;;;12.79;54.16;99839.88;5021127;28;20034;-61
2020/12/29 09:23:10;;;;;;;2.30;1.80;;;;;;;12.82;54.64;99844.72;5026355;28;20136;-69
2020/12/29 09:25:45;;;;;;;4.82;3.38;;;;;;;12.70;55.94;99844.22;5020802;28;20041;-68
2020/12/29 09:28:21;;;;;;;3.88;1.77;;;;;;;12.62;54.60;99841.03;5025337;28;20075;-68
2020/12/29 09:30:59;;;;;;;5.30;3.47;;;;;;;12.74;54.30;99834.53;5025642;28;20037;-68
2020/12/29 09:33:29;;;;;;;4.25;1.77;;;;;;;12.83;54.52;99846.31;5026783;28;20029;-67
2020/12/29 09:35:58;;;;;;;4.15;1.77;;;;;;;12.78;54.60;99847.16;5036998;28;20077;-67
2020/12/29 09:38:24;;;;;;;17.13;3.35;;;;;;;12.73;53.50;99849.88;5027082;28;20715;-68
2020/12/29 09:40:50;;;;;;;4.25;2.30;;;;;;;12.68;53.75;99855.25;5025075;28;20043;-68
2020/12/29 09:43:16;;;;;;;4.90;2.13;;;;;;;12.78;53.60;99857.09;5027281;28;20120;-67
2020/12/29 09:45:47;;;;;;;8.93;4.72;;;;;;;12.70;52.34;99853.09;5026676;28;20119;-68
2020/12/29 09:48:13;;;;;;;9.30;2.28;;;;;;;12.80;51.92;99855.75;5027222;28;20037;-68
2020/12/29 09:50:39;;;;;;;5.53;2.72;;;;;;;12.84;50.94;99856.00;5027135;28;20060;-67
2020/12/29 09:53:05;;;;;;;11.25;3.03;;;;;;;12.92;51.72;99860.81;5026558;28;20055;-67
2020/12/29 09:55:30;;;;;;;19.50;4.30;;;;;;;12.90;52.72;99864.84;5026746;28;20491;-67
2020/12/29 09:57:56;;;;;;;7.78;3.65;;;;;;;12.88;52.76;99861.63;5027014;28;20323;-67
2020/12/29 10:00:22;;;;;;;6.18;2.67;;;;;;;12.83;52.79;99868.66;5027072;28;20056;-68
2020/12/29 10:02:47;;;;;;;8.77;4.13;;;;;;;12.86;53.17;99862.69;5026851;28;20428;-68
2020/12/29 10:05:13;;;;;;;5.95;3.67;;;;;;;12.96;52.27;99871.84;5025748;28;20055;-66
2020/12/29 10:07:38;;;;;;;5.57;2.58;;;;;;;12.96;52.25;99872.63;5026577;28;20028;-67
2020/12/29 10:10:04;;;;;;;6.78;2.83;;;;;;;13.02;50.93;99859.94;5021691;28;20510;-66
2020/12/29 10:12:29;;;;;;;3.97;2.15;;;;;;;13.01;49.88;99859.16;5024361;28;20120;-67
2020/12/29 10:14:56;;;;;;;7.72;2.70;;;;;;;13.12;50.06;99865.28;5027974;28;20036;-69
2020/12/29 10:17:21;;;;;;;7.15;4.57;;;;;;;13.09;49.71;99860.44;5027647;28;20555;-66
2020/12/29 10:19:47;;;;;;;10.45;2.83;;;;;;;13.16;48.95;99857.47;5011553;28;20128;-69
2020/12/29 10:22:12;;;;;;;20.77;4.70;;;;;;;13.07;48.93;99862.63;5027272;28;20383;-70
2020/12/29 10:24:38;;;;;;;6.22;4.55;;;;;;;13.07;48.54;99868.00;5028335;28;20065;-69
2020/12/29 10:27:03;;;;;;;23.48;6.13;;;;;;;13.14;48.21;99857.72;5028117;28;20465;-67
2020/12/29 10:29:29;;;;;;;5.72;2.50;;;;;;;13.07;49.00;99853.75;5028482;28;20037;-66
2020/12/29 10:31:54;;;;;;;10.60;3.22;;;;;;;13.19;49.11;99855.00;5020568;28;20048;-70
2020/12/29 10:34:20;;;;;;;7.55;4.70;;;;;;;13.26;48.40;99853.91;5028004;28;20091;-70
2020/12/29 10:36:46;;;;;;;8.88;3.78;;;;;;;13.26;48.38;99853.91;5027582;28;20034;-71
2020/12/29 10:39:13;;;;;;;6.60;3.67;;;;;;;13.23;47.97;99861.44;5028613;28;20140;-69
2020/12/29 10:41:40;;;;;;;7.00;2.58;;;;;;;13.21;48.81;99857.44;5012312;28;20472;-69
2020/12/29 10:44:07;;;;;;;4.13;2.50;;;;;;;13.18;49.93;99858.81;5009834;28;20120;-69
2020/12/29 10:46:32;;;;;;;4.55;2.08;;;;;;;13.05;51.42;99860.19;5010716;28;20486;-70
2020/12/29 10:48:58;;;;;;;5.68;2.47;;;;;;;13.11;50.99;99857.47;5010361;28;20044;-69
2020/12/29 10:51:25;;;;;;;3.35;2.17;;;;;;;13.09;51.69;99860.44;5014758;28;20037;-69
2020/12/29 10:53:52;;;;;;;4.25;2.65;;;;;;;13.03;50.95;99854.28;5027731;28;20144;-69
2020/12/29 10:56:18;;;;;;;11.30;1.73;;;;;;;13.11;51.64;99858.28;5028265;28;20053;-69
2020/12/29 10:58:44;;;;;;;3.22;1.08;;;;;;;12.96;51.44;99851.09;5026814;28;20566;-69
2020/12/29 11:01:11;;;;;;;5.82;3.22;;;;;;;12.94;51.65;99853.28;5028139;28;20075;-70
2020/12/29 11:03:36;;;;;;;8.60;2.35;;;;;;;13.05;50.97;99846.75;5028165;28;20112;-69
2020/12/29 11:06:02;;;;;;;7.30;0.93;;;;;;;13.01;51.50;99858.34;5028047;28;20171;-63
2020/12/29 11:08:28;;;;;;;10.00;2.03;;;;;;;13.10;51.21;99856.69;5025349;28;20140;-68
2020/12/29 11:10:55;;;;;;;3.92;1.50;;;;;;;13.19;51.37;99844.25;5027565;28;20061;-63
2020/12/29 11:13:21;;;;;;;6.50;1.92;;;;;;;13.22;50.87;99843.69;5026762;28;20480;-59
2020/12/29 11:15:51;;;;;;;7.90;1.60;;;;;;;13.24;51.25;99846.91;5027831;28;20034;-62
2020/12/29 11:18:17;;;;;;;7.50;1.60;;;;;;;13.27;50.36;99850.13;5026621;28;20030;-63
2020/12/29 11:20:43;;;;;;;4.00;1.92;;;;;;;13.33;50.33;99843.66;5027907;28;20048;-69
2020/12/29 11:23:08;;;;;;;1.70;1.10;;;;;;;13.29;50.16;99840.69;5027583;28;20041;-69
2020/12/29 11:25:34;;;;;;;4.20;1.52;;;;;;;13.16;50.76;99844.78;5027791;28;20083;-68
2020/12/29 11:27:59;;;;;;;6.82;1.95;;;;;;;13.10;50.75;99842.44;5027838;28;20491;-69
2020/12/29 11:30:25;;;;;;;7.97;1.95;;;;;;;13.21;50.78;99841.28;5027949;28;20076;-68
2020/12/29 11:32:51;;;;;;;3.03;1.20;;;;;;;13.18;50.81;99841.81;5027664;28;20080;-68
2020/12/29 11:35:16;;;;;;;2.97;1.05;;;;;;;13.21;50.58;99841.28;5024972;28;20056;-68